createdAt,value
2018-04-11T00:01:53.627Z,12.40
2018-04-11T00:04:22.499Z,12.43
2018-04-11T00:06:52.342Z,12.36
2018-04-11T00:09:21.859Z,12.33
2018-04-11T00:11:50.779Z,12.41
2018-04-11T00:14:20.431Z,12.35
2018-04-11T00:16:49.419Z,12.33
2018-04-11T00:19:18.513Z,12.38
2018-04-11T00:21:47.600Z,12.21
2018-04-11T00:24:16.930Z,12.03
2018-04-11T00:26:45.857Z,12.07
2018-04-11T00:29:14.760Z,12.06
2018-04-11T00:31:44.080Z,12.04
2018-04-11T00:34:13.082Z,12.12
2018-04-11T00:36:42.498Z,12.17
2018-04-11T00:39:11.800Z,12.09
2018-04-11T00:41:40.729Z,12.00
2018-04-11T00:44:11.049Z,12.00
2018-04-11T00:46:40.157Z,12.00
2018-04-11T00:49:09.027Z,11.92
2018-04-11T00:51:37.974Z,11.88
2018-04-11T00:54:07.750Z,11.95
2018-04-11T00:56:36.656Z,11.96
2018-04-11T00:59:05.938Z,11.91
2018-04-11T01:01:34.831Z,11.97
2018-04-11T01:04:04.746Z,11.98
2018-04-11T01:06:35.181Z,12.01
2018-04-11T01:09:04.831Z,11.85
2018-04-11T01:11:33.915Z,11.95
2018-04-11T01:14:03.959Z,11.97
2018-04-11T01:16:32.888Z,11.97
2018-04-11T01:19:02.186Z,11.97
2018-04-11T01:21:31.687Z,12.01
2018-04-11T01:24:00.563Z,12.01
2018-04-11T01:26:29.487Z,12.05
2018-04-11T01:28:58.394Z,12.08
2018-04-11T01:31:27.584Z,12.12
2018-04-11T01:33:56.515Z,12.18
2018-04-11T01:36:25.422Z,12.16
2018-04-11T01:38:54.339Z,12.17
2018-04-11T01:41:23.666Z,12.22
2018-04-11T01:43:52.632Z,12.20
2018-04-11T01:46:21.548Z,12.14
2018-04-11T01:48:52.009Z,12.18
2018-04-11T01:51:20.904Z,12.19
2018-04-11T01:53:49.843Z,12.21
2018-04-11T01:56:19.441Z,12.18
2018-04-11T01:58:48.513Z,12.12
2018-04-11T02:01:17.529Z,12.10
2018-04-11T02:03:46.887Z,11.92
2018-04-11T02:06:15.924Z,11.94
2018-04-11T02:08:44.798Z,11.95
2018-04-11T02:11:14.249Z,11.94
2018-04-11T02:13:43.146Z,11.94
2018-04-11T02:16:12.131Z,11.93
2018-04-11T02:18:41.587Z,11.96
2018-04-11T02:21:10.505Z,11.95
2018-04-11T02:23:39.409Z,11.98
2018-04-11T02:26:08.324Z,12.00
2018-04-11T02:28:37.565Z,11.98
2018-04-11T02:31:06.486Z,11.91
2018-04-11T02:33:35.385Z,11.78
2018-04-11T02:36:05.483Z,11.78
2018-04-11T02:38:34.476Z,11.74
2018-04-11T02:41:03.435Z,11.75
2018-04-11T02:43:32.646Z,11.75
2018-04-11T02:46:01.577Z,11.64
2018-04-11T02:48:30.527Z,11.62
2018-04-11T02:50:59.431Z,11.68
2018-04-11T02:53:28.380Z,11.64
2018-04-11T02:55:57.346Z,11.58
2018-04-11T02:58:27.642Z,11.62
2018-04-11T03:00:56.544Z,11.61
2018-04-11T03:03:25.435Z,11.51
2018-04-11T03:05:54.399Z,11.50
2018-04-11T03:08:23.722Z,11.44
2018-04-11T03:10:52.643Z,11.36
2018-04-11T03:13:21.573Z,11.35
2018-04-11T03:15:50.486Z,11.36
2018-04-11T03:18:19.419Z,11.24
2018-04-11T03:20:48.425Z,11.28
2018-04-11T03:23:17.319Z,11.24
2018-04-11T03:25:46.741Z,11.23
2018-04-11T03:28:15.634Z,11.26
2018-04-11T03:30:44.557Z,11.29
2018-04-11T03:33:13.941Z,11.35
2018-04-11T03:35:42.850Z,11.34
2018-04-11T03:38:11.815Z,11.28
2018-04-11T03:40:40.780Z,11.26
2018-04-11T03:43:10.190Z,11.27
2018-04-11T03:45:39.108Z,11.18
2018-04-11T03:48:08.235Z,11.06
2018-04-11T03:50:37.181Z,10.96
2018-04-11T03:53:06.444Z,10.97
2018-04-11T03:55:35.395Z,11.00
2018-04-11T03:58:05.420Z,11.06
2018-04-11T04:00:34.931Z,11.07
2018-04-11T04:03:03.894Z,10.99
2018-04-11T04:05:32.867Z,11.00
2018-04-11T04:08:04.070Z,10.91
2018-04-11T04:10:32.953Z,10.94
2018-04-11T04:13:01.894Z,10.97
2018-04-11T04:15:41.575Z,10.97
2018-04-11T04:20:20.008Z,11.02
2018-04-11T04:22:49.679Z,11.04
2018-04-11T04:25:18.922Z,11.02
2018-04-11T04:27:47.947Z,10.96
2018-04-11T04:30:16.838Z,10.94
2018-04-11T04:32:45.867Z,10.98
2018-04-11T04:35:15.317Z,10.93
2018-04-11T04:37:44.598Z,10.91
2018-04-11T04:40:13.503Z,10.86
2018-04-11T04:42:42.453Z,10.83
2018-04-11T04:45:11.365Z,10.86
2018-04-11T04:47:40.390Z,10.89
2018-04-11T04:50:09.607Z,10.90
2018-04-11T04:52:38.503Z,10.90
2018-04-11T04:55:07.495Z,10.93
2018-04-11T04:57:36.503Z,10.94
2018-04-11T05:00:06.917Z,10.89
2018-04-11T05:02:35.889Z,10.90
2018-04-11T05:05:05.106Z,10.79
2018-04-11T05:07:34.431Z,10.71
2018-04-11T05:10:04.002Z,10.75
2018-04-11T05:12:33.236Z,10.73
2018-04-11T05:15:04.209Z,10.72
2018-04-11T05:17:33.164Z,10.64
2018-04-11T05:20:02.732Z,10.63
2018-04-11T05:22:31.787Z,10.67
2018-04-11T05:25:00.981Z,10.48
2018-04-11T05:27:29.968Z,10.45
2018-04-11T05:29:59.196Z,10.53
2018-04-11T05:32:28.144Z,10.56
2018-04-11T05:34:57.057Z,10.60
2018-04-11T05:37:26.291Z,10.59
2018-04-11T05:39:55.829Z,10.56
2018-04-11T05:42:24.774Z,10.49
2018-04-11T05:44:53.958Z,10.47
2018-04-11T05:47:22.895Z,10.44
2018-04-11T05:49:51.774Z,10.42
2018-04-11T05:52:20.980Z,10.47
2018-04-11T05:54:49.919Z,10.43
2018-04-11T05:57:18.862Z,10.59
2018-04-11T05:59:48.400Z,10.55
2018-04-11T06:02:17.453Z,10.47
2018-04-11T06:04:46.556Z,10.54
2018-04-11T06:07:15.780Z,10.55
2018-04-11T06:09:44.721Z,10.51
2018-04-11T06:12:13.683Z,10.56
2018-04-11T06:14:42.876Z,10.51
2018-04-11T06:17:11.798Z,10.61
2018-04-11T06:19:40.749Z,10.58
2018-04-11T06:22:10.039Z,10.64
2018-04-11T06:24:39.000Z,10.72
2018-04-11T06:27:08.318Z,10.82
2018-04-11T06:29:37.378Z,10.93
2018-04-11T06:32:06.415Z,10.92
2018-04-11T06:34:35.325Z,10.95
2018-04-11T06:37:04.939Z,11.14
2018-04-11T06:39:33.927Z,11.21
2018-04-11T06:42:03.855Z,11.39
2018-04-11T06:44:33.243Z,11.51
2018-04-11T06:47:02.436Z,11.57
2018-04-11T06:49:31.392Z,11.60
2018-04-11T06:52:00.682Z,11.64
2018-04-11T06:54:29.679Z,11.69
2018-04-11T06:56:58.622Z,11.60
2018-04-11T06:59:28.892Z,11.48
2018-04-11T07:01:58.626Z,11.48
2018-04-11T07:04:27.587Z,11.41
2018-04-11T07:06:56.487Z,11.38
2018-04-11T07:09:25.431Z,11.42
2018-04-11T07:11:54.398Z,11.52
2018-04-11T07:14:23.610Z,11.63
2018-04-11T07:16:52.591Z,11.74
2018-04-11T07:19:21.758Z,11.74
2018-04-11T07:21:50.675Z,11.59
2018-04-11T07:24:20.069Z,11.63
2018-04-11T07:26:49.756Z,11.78
2018-04-11T07:29:19.049Z,11.78
2018-04-11T07:31:48.126Z,11.77
2018-04-11T07:34:17.023Z,11.93
2018-04-11T07:36:46.082Z,12.09
2018-04-11T07:39:15.482Z,11.94
2018-04-11T07:41:44.428Z,11.88
2018-04-11T07:44:13.399Z,11.96
2018-04-11T07:46:42.647Z,12.06
2018-04-11T07:49:11.895Z,12.08
2018-04-11T07:51:40.805Z,12.10
2018-04-11T07:54:11.101Z,12.14
2018-04-11T07:56:40.078Z,12.13
2018-04-11T07:59:09.011Z,12.14
2018-04-11T08:01:38.250Z,12.10
2018-04-11T08:04:07.266Z,12.26
2018-04-11T08:09:10.825Z,12.44
2018-04-11T08:11:39.899Z,12.48
2018-04-11T08:14:10.302Z,12.69
2018-04-11T08:16:39.300Z,12.67
2018-04-11T08:19:08.307Z,12.87
2018-04-11T08:21:37.711Z,12.98
2018-04-11T08:24:05.646Z,13.08
2018-04-11T08:26:34.627Z,13.15
2018-04-11T08:29:04.228Z,13.24
2018-04-11T08:31:33.319Z,13.49
2018-04-11T08:34:03.268Z,13.62
2018-04-11T08:36:32.587Z,13.81
2018-04-11T08:39:02.027Z,13.88
2018-04-11T08:41:30.973Z,13.96
2018-04-11T08:44:00.199Z,14.06
2018-04-11T08:46:29.143Z,14.19
2018-04-11T08:48:58.135Z,14.37
2018-04-11T08:51:27.423Z,14.56
2018-04-11T08:53:56.395Z,14.64
2018-04-11T08:56:25.313Z,14.89
2018-04-11T08:58:54.366Z,15.10
2018-04-11T09:01:23.271Z,15.18
2018-04-11T09:03:54.166Z,15.31
2018-04-11T09:06:23.420Z,15.43
2018-04-11T09:08:52.622Z,15.52
2018-04-11T09:11:21.567Z,15.59
2018-04-11T09:13:50.895Z,15.67
2018-04-11T09:16:19.926Z,15.88
2018-04-11T09:18:50.086Z,16.06
2018-04-11T09:21:19.323Z,16.34
2018-04-11T09:23:48.462Z,16.60
2018-04-11T09:26:17.366Z,16.92
2018-04-11T09:28:46.567Z,17.00
2018-04-11T09:31:15.517Z,17.27
2018-04-11T09:33:44.505Z,17.48
2018-04-11T09:36:13.735Z,17.71
2018-04-11T09:38:42.921Z,17.80
2018-04-11T09:41:11.892Z,18.13
2018-04-11T09:43:41.238Z,18.38
2018-04-11T09:46:10.384Z,18.59
2018-04-11T09:48:39.456Z,18.79
2018-04-11T09:51:08.906Z,19.05
2018-04-11T09:53:38.111Z,19.42
2018-04-11T09:56:07.140Z,19.66
2018-04-11T09:58:36.825Z,19.68
2018-04-11T10:01:06.232Z,20.01
2018-04-11T10:03:36.860Z,20.19
2018-04-11T10:06:08.595Z,20.42
2018-04-11T10:08:37.601Z,20.55
2018-04-11T10:11:20.993Z,20.77
2018-04-11T10:13:50.358Z,21.00
2018-04-11T10:16:19.728Z,21.26
2018-04-11T10:18:49.066Z,21.25
2018-04-11T10:21:19.098Z,21.31
2018-04-11T10:23:48.897Z,21.58
2018-04-11T10:26:18.184Z,21.79
2018-04-11T10:28:48.354Z,22.16
2018-04-11T10:31:17.494Z,21.96
2018-04-11T10:33:46.567Z,21.93
2018-04-11T10:36:15.889Z,22.18
2018-04-11T10:38:45.227Z,22.53
2018-04-11T10:41:14.387Z,22.96
2018-04-11T10:43:43.327Z,23.18
2018-04-11T10:46:12.392Z,23.57
2018-04-11T10:48:41.515Z,23.64
2018-04-11T10:51:10.442Z,23.90
2018-04-11T10:53:39.450Z,23.94
2018-04-11T10:56:08.700Z,24.34
2018-04-11T10:58:37.652Z,24.67
2018-04-11T11:01:06.591Z,24.05
2018-04-11T11:03:35.827Z,24.69
2018-04-11T11:08:30.716Z,24.96
2018-04-11T11:11:00.067Z,25.02
2018-04-11T11:13:28.973Z,25.37
2018-04-11T11:15:57.881Z,25.73
2018-04-11T11:18:27.085Z,25.84
2018-04-11T11:20:58.814Z,25.69
2018-04-11T11:23:27.784Z,25.69
2018-04-11T11:25:56.884Z,25.56
2018-04-11T11:28:25.835Z,25.87
2018-04-11T11:30:56.083Z,26.03
2018-04-11T11:33:25.277Z,25.98
2018-04-11T11:35:54.320Z,26.33
2018-04-11T11:38:23.876Z,26.94
2018-04-11T11:40:53.787Z,26.51
2018-04-11T11:43:22.832Z,26.22
2018-04-11T11:45:52.038Z,26.20
2018-04-11T11:48:20.999Z,26.62
2018-04-11T11:50:50.852Z,26.04
2018-04-11T11:53:21.546Z,25.60
2018-04-11T11:55:50.620Z,25.93
2018-04-11T11:58:19.584Z,26.11
2018-04-11T12:00:50.378Z,26.14
2018-04-11T12:03:19.404Z,26.44
2018-04-11T12:05:49.004Z,26.66
2018-04-11T12:08:18.411Z,27.26
2018-04-11T12:10:47.588Z,27.34
2018-04-11T12:13:18.121Z,27.45
2018-04-11T12:15:47.608Z,27.14
2018-04-11T12:18:17.183Z,27.12
2018-04-11T12:20:46.244Z,27.07
2018-04-11T12:23:15.684Z,27.03
2018-04-11T12:25:44.776Z,27.72
2018-04-11T12:28:13.759Z,27.85
2018-04-11T12:30:43.207Z,28.40
2018-04-11T12:33:12.565Z,28.13
2018-04-11T12:35:41.532Z,27.88
2018-04-11T12:38:10.830Z,28.39
2018-04-11T12:40:39.783Z,28.21
2018-04-11T12:43:08.707Z,28.54
2018-04-11T12:45:38.127Z,28.78
2018-04-11T12:48:07.095Z,29.03
2018-04-11T12:50:36.034Z,29.24
2018-04-11T12:53:05.308Z,29.79
2018-04-11T12:55:34.371Z,29.72
2018-04-11T12:58:05.467Z,29.56
2018-04-11T13:00:34.702Z,30.15
2018-04-11T13:03:03.791Z,30.15
2018-04-11T13:05:32.699Z,30.12
2018-04-11T13:08:03.498Z,29.82
2018-04-11T13:10:32.488Z,30.05
2018-04-11T13:13:01.864Z,30.04
2018-04-11T13:15:30.790Z,29.79
2018-04-11T13:17:59.774Z,30.01
2018-04-11T13:20:29.103Z,30.77
2018-04-11T13:22:57.995Z,30.44
2018-04-11T13:25:26.905Z,31.28
2018-04-11T13:27:56.419Z,31.26
2018-04-11T13:30:25.767Z,31.32
2018-04-11T13:32:55.087Z,31.43
2018-04-11T13:35:24.344Z,30.60
2018-04-11T13:37:53.295Z,31.07
2018-04-11T13:40:22.204Z,31.27
2018-04-11T13:42:51.679Z,30.97
2018-04-11T13:45:20.714Z,31.01
2018-04-11T13:47:50.420Z,31.18
2018-04-11T13:50:19.640Z,31.49
2018-04-11T13:52:48.856Z,31.57
2018-04-11T13:55:17.982Z,31.03
2018-04-11T13:57:47.500Z,31.11
2018-04-11T14:00:16.371Z,31.41
2018-04-11T14:02:45.270Z,31.70
2018-04-11T14:05:14.494Z,31.95
2018-04-11T14:07:43.412Z,31.56
2018-04-11T14:10:12.410Z,31.20
2018-04-11T14:12:41.628Z,31.07
2018-04-11T14:15:10.556Z,31.40
2018-04-11T14:17:39.555Z,31.65
2018-04-11T14:20:08.774Z,31.28
2018-04-11T14:22:37.706Z,31.92
2018-04-11T14:25:06.734Z,31.83
2018-04-11T14:27:36.054Z,31.97
2018-04-11T14:30:05.701Z,32.46
2018-04-11T14:32:34.672Z,32.44
2018-04-11T14:35:03.945Z,32.39
2018-04-11T14:37:32.878Z,32.71
2018-04-11T14:40:03.606Z,32.31
2018-04-11T14:42:32.910Z,31.12
2018-04-11T14:45:02.336Z,30.72
2018-04-11T14:47:31.422Z,29.56
2018-04-11T14:50:02.903Z,29.35
2018-04-11T14:52:31.851Z,28.92
2018-04-11T14:55:01.087Z,28.92
2018-04-11T14:57:30.535Z,28.42
2018-04-11T14:59:59.923Z,28.06
2018-04-11T15:02:28.911Z,27.69
2018-04-11T15:04:58.310Z,27.66
2018-04-11T15:07:27.268Z,27.76
2018-04-11T15:09:57.482Z,28.58
2018-04-11T15:12:26.677Z,29.58
2018-04-11T15:14:55.600Z,30.69
2018-04-11T15:17:24.727Z,31.86
2018-04-11T15:19:53.998Z,32.37
2018-04-11T15:22:23.240Z,33.07
2018-04-11T15:24:52.916Z,33.24
2018-04-11T15:27:22.567Z,33.32
2018-04-11T15:29:51.521Z,33.33
2018-04-11T15:32:23.890Z,33.30
2018-04-11T15:34:56.299Z,31.64
2018-04-11T15:37:25.317Z,30.65
2018-04-11T15:39:54.419Z,29.73
2018-04-11T15:42:23.772Z,28.91
2018-04-11T15:44:52.769Z,28.07
2018-04-11T15:47:21.699Z,27.43
2018-04-11T15:49:51.210Z,26.70
2018-04-11T15:52:20.211Z,26.67
2018-04-11T15:54:49.418Z,26.46
2018-04-11T15:57:19.344Z,26.29
2018-04-11T15:59:48.590Z,26.64
2018-04-11T16:02:19.417Z,27.52
2018-04-11T16:04:49.597Z,28.44
2018-04-11T16:07:18.734Z,29.06
2018-04-11T16:09:47.844Z,29.55
2018-04-11T16:12:17.103Z,29.37
2018-04-11T16:14:46.019Z,29.83
2018-04-11T16:17:14.996Z,30.33
2018-04-11T16:19:44.269Z,30.64
2018-04-11T16:22:14.093Z,30.55
2018-04-11T16:24:43.170Z,29.96
2018-04-11T16:27:12.655Z,29.91
2018-04-11T16:29:42.289Z,29.32
2018-04-11T16:32:11.294Z,29.10
2018-04-11T16:34:40.808Z,29.01
2018-04-11T16:37:09.803Z,28.32
2018-04-11T16:39:38.788Z,27.84
2018-04-11T16:42:09.022Z,27.49
2018-04-11T16:44:38.442Z,27.46
2018-04-11T16:47:07.524Z,27.47
2018-04-11T16:49:36.908Z,27.36
2018-04-11T16:52:06.315Z,27.11
2018-04-11T16:54:35.335Z,26.48
2018-04-11T16:57:05.684Z,26.16
2018-04-11T16:59:34.690Z,25.58
2018-04-11T17:02:05.464Z,24.96
2018-04-11T17:04:34.893Z,24.77
2018-04-11T17:07:04.765Z,24.66
2018-04-11T17:09:33.828Z,24.41
2018-04-11T17:12:04.246Z,24.12
2018-04-11T17:14:33.304Z,23.97
2018-04-11T17:17:02.391Z,23.84
2018-04-11T17:19:31.744Z,23.66
2018-04-11T17:22:11.559Z,23.46
2018-04-11T17:24:51.593Z,23.21
2018-04-11T17:29:38.420Z,23.17
2018-04-11T17:32:07.656Z,23.00
2018-04-11T17:34:36.613Z,22.83
2018-04-11T17:37:06.365Z,22.71
2018-04-11T17:39:35.320Z,22.63
2018-04-11T17:42:05.237Z,22.58
2018-04-11T17:44:35.616Z,22.52
2018-04-11T17:47:05.052Z,22.44
2018-04-11T17:49:34.051Z,22.26
2018-04-11T17:52:05.055Z,22.09
2018-04-11T17:54:34.065Z,21.98
2018-04-11T17:57:03.263Z,21.90
2018-04-11T17:59:32.440Z,21.87
2018-04-11T18:02:03.154Z,21.76
2018-04-11T18:04:32.118Z,21.69
2018-04-11T18:07:01.395Z,21.64
2018-04-11T18:09:30.371Z,21.55
2018-04-11T18:11:59.384Z,21.44
2018-04-11T18:14:28.853Z,21.41
2018-04-11T18:16:57.822Z,21.40
2018-04-11T18:19:26.824Z,21.36
2018-04-11T18:21:56.759Z,21.30
2018-04-11T18:24:25.783Z,21.27
2018-04-11T18:26:55.913Z,21.16
2018-04-11T18:29:25.277Z,21.13
2018-04-11T18:31:54.270Z,21.08
2018-04-11T18:34:23.382Z,21.04
2018-04-11T18:36:52.720Z,21.03
2018-04-11T18:39:21.683Z,20.98
2018-04-11T18:41:50.788Z,20.93
2018-04-11T18:44:20.469Z,20.92
2018-04-11T18:46:49.647Z,20.89
2018-04-11T18:49:19.783Z,20.90
2018-04-11T18:51:50.653Z,20.86
2018-04-11T18:54:19.648Z,20.82
2018-04-11T18:56:48.803Z,20.76
2018-04-11T18:59:18.064Z,20.74
2018-04-11T19:01:47.084Z,20.72
2018-04-11T19:04:16.188Z,20.70
2018-04-11T19:06:45.464Z,20.70
2018-04-11T19:09:14.401Z,20.67
2018-04-11T19:11:43.346Z,20.60
2018-04-11T19:14:12.766Z,20.55
2018-04-11T19:16:41.830Z,20.55
2018-04-11T19:19:11.032Z,20.55
2018-04-11T19:21:40.400Z,20.51
2018-04-11T19:24:09.773Z,20.49
2018-04-11T19:26:38.834Z,20.49
2018-04-11T19:29:09.116Z,20.43
2018-04-11T19:31:38.960Z,20.30
2018-04-11T19:34:08.130Z,20.29
2018-04-11T19:36:38.457Z,20.24
2018-04-11T19:39:07.627Z,20.22
2018-04-11T19:41:36.593Z,20.15
2018-04-11T19:44:06.659Z,20.12
2018-04-11T19:46:35.707Z,20.06
2018-04-11T19:49:04.903Z,19.98
2018-04-11T19:51:35.228Z,19.95
2018-04-11T19:54:05.372Z,19.93
2018-04-11T19:56:34.412Z,19.88
2018-04-11T19:59:06.741Z,19.83
2018-04-11T20:01:36.026Z,19.80
2018-04-11T20:04:06.533Z,19.81
2018-04-11T20:06:35.992Z,19.76
2018-04-11T20:09:06.156Z,19.73
2018-04-11T20:11:35.294Z,19.74
2018-04-11T20:14:05.682Z,19.73
2018-04-11T20:16:36.027Z,19.66
2018-04-11T20:19:05.455Z,19.66
2018-04-11T20:25:06.189Z,19.61
2018-04-11T20:27:35.627Z,19.60
2018-04-11T20:30:05.776Z,19.55
2018-04-11T20:32:35.177Z,19.49
2018-04-11T20:35:05.286Z,19.43
2018-04-11T20:37:35.093Z,19.42
2018-04-11T20:40:05.800Z,19.38
2018-04-11T20:42:36.113Z,19.37
2018-04-11T20:45:05.983Z,19.30
2018-04-11T20:47:36.386Z,19.27
2018-04-11T20:50:07.316Z,19.25
2018-04-11T20:52:37.278Z,19.19
2018-04-11T20:55:09.501Z,19.16
2018-04-11T20:57:39.719Z,19.14
2018-04-11T21:00:10.261Z,19.14
2018-04-11T21:02:40.108Z,19.07
2018-04-11T21:05:10.343Z,19.03
2018-04-11T21:07:40.248Z,19.02
2018-04-11T21:10:10.172Z,18.94
2018-04-11T21:12:39.972Z,18.93
2018-04-11T21:15:09.842Z,18.86
2018-04-11T21:17:40.195Z,18.85
2018-04-11T21:20:10.887Z,18.79
2018-04-11T21:22:39.915Z,18.73
2018-04-11T21:25:09.015Z,18.73
2018-04-11T21:27:38.137Z,18.72
2018-04-11T21:30:09.259Z,18.70
2018-04-11T21:32:38.576Z,18.70
2018-04-11T21:35:07.561Z,18.62
2018-04-11T21:37:36.855Z,18.57
2018-04-11T21:40:05.864Z,18.53
2018-04-11T21:42:34.863Z,18.52
2018-04-11T21:45:05.985Z,18.48
2018-04-11T21:47:35.078Z,18.42
2018-04-11T21:50:06.827Z,18.41
2018-04-11T21:52:36.358Z,18.34
2018-04-11T21:55:05.420Z,18.35
2018-04-11T21:57:34.504Z,18.31
2018-04-11T22:00:05.523Z,18.26
2018-04-11T22:02:34.464Z,18.24
2018-04-11T22:08:37.470Z,18.11
2018-04-11T22:11:06.490Z,18.07
2018-04-11T22:13:35.763Z,18.07
2018-04-11T22:16:06.935Z,18.07
2018-04-11T22:18:35.903Z,18.05
2018-04-11T22:21:07.080Z,17.98
2018-04-11T22:23:36.058Z,17.96
2018-04-11T22:26:06.259Z,17.93
2018-04-11T22:28:35.312Z,17.93
2018-04-11T22:31:04.627Z,17.91
2018-04-11T22:33:33.903Z,17.84
2018-04-11T22:36:05.455Z,17.75
2018-04-11T22:38:34.619Z,17.70
2018-04-11T22:41:05.062Z,17.68
2018-04-11T22:43:34.340Z,17.61
2018-04-11T22:46:04.389Z,17.62
2018-04-11T22:48:33.693Z,17.62
2018-04-11T22:51:02.885Z,17.58
2018-04-11T22:53:32.412Z,17.46
2018-04-11T22:56:02.744Z,17.40
2018-04-11T22:58:31.744Z,17.35
2018-04-11T23:01:01.970Z,17.37
2018-04-11T23:03:31.308Z,17.33
2018-04-11T23:06:00.261Z,17.34
2018-04-11T23:08:29.648Z,17.29
2018-04-11T23:10:59.062Z,17.26
2018-04-11T23:13:28.122Z,17.24
2018-04-11T23:15:58.022Z,17.15
2018-04-11T23:18:28.391Z,17.15
2018-04-11T23:20:58.235Z,17.07
2018-04-11T23:23:27.246Z,17.04
2018-04-11T23:25:56.238Z,16.92
2018-04-11T23:28:25.131Z,16.91
2018-04-11T23:30:54.536Z,16.86
2018-04-11T23:33:23.947Z,16.81
2018-04-11T23:35:53.654Z,16.76
2018-04-11T23:38:22.655Z,16.72
2018-04-11T23:40:55.514Z,16.70
2018-04-11T23:43:24.390Z,16.67
2018-04-11T23:45:53.358Z,16.53
2018-04-11T23:48:22.595Z,16.50
2018-04-11T23:50:51.627Z,16.46
2018-04-11T23:53:20.651Z,16.48
2018-04-11T23:55:50.678Z,16.48
2018-04-11T23:58:19.935Z,16.43
